Time;durP1;ratioP1;P1;durP2;ratioP2;P2;SDS_P1;SDS_P2;PMS_P1;PMS_P2;Temp;Humidity;BMP_temperature;BMP_pressure;BME280_temperature;BME280_humidity;BME280_pressure;Samples;Min_cycle;Max_cycle;Signal;HPM_P1;HPM_P2
2021/08/03 00:02:00;;;;;;;;;;;;;;;27.92;40.64;97327.81;5031356;28;1773;-52
2021/08/03 00:04:25;;;;;;;;;;;;;;;28.03;40.25;97322.34;5031094;28;1633;-52
2021/08/03 00:06:51;;;;;;;;;;;;;;;27.98;40.34;97329.91;5014319;28;1200;-53
2021/08/03 00:09:16;;;;;;;;;;;;;;;27.96;40.37;97331.00;5031357;28;1563;-53
2021/08/03 00:11:42;;;;;;;;;;;;;;;27.97;40.35;97322.94;5030962;28;1642;-53
2021/08/03 00:14:07;;;;;;;;;;;;;;;27.99;40.54;97331.56;5030566;28;1203;-52
2021/08/03 00:16:35;;;;;;;;;;;;;;;28.01;40.29;97328.78;5031512;28;1140;-53
2021/08/03 00:19:00;;;;;;;;;;;;;;;27.94;40.30;97327.66;5029883;28;1918;-52
2021/08/03 00:21:26;;;;;;;;;;;;;;;27.93;40.25;97331.31;5030778;28;1480;-52
2021/08/03 00:23:51;;;;;;;;;;;;;;;27.88;40.37;97339.66;5030625;28;1069;-53
2021/08/03 00:26:16;;;;;;;;;;;;;;;27.89;40.40;97324.63;5029998;28;1602;-52
2021/08/03 00:28:46;;;;;;;;;;;;;;;27.96;40.01;97333.66;5027455;28;1797;-53
2021/08/03 00:31:12;;;;;;;;;;;;;;;27.88;40.25;97331.72;5031786;28;1172;-52
2021/08/03 00:33:37;;;;;;;;;;;;;;;27.88;40.48;97323.75;5026814;28;1269;-53
2021/08/03 00:36:03;;;;;;;;;;;;;;;27.92;40.29;97319.88;5029094;28;1617;-52
2021/08/03 00:38:29;;;;;;;;;;;;;;;27.93;40.50;97324.19;5030692;28;1320;-53
2021/08/03 00:40:57;;;;;;;;;;;;;;;27.93;40.42;97310.09;5028445;28;1963;-53
2021/08/03 00:43:22;;;;;;;;;;;;;;;27.87;40.47;97308.84;5029073;28;1542;-52
2021/08/03 00:45:47;;;;;;;;;;;;;;;27.94;40.25;97311.75;5028919;28;1736;-53
2021/08/03 00:48:13;;;;;;;;;;;;;;;27.90;40.32;97319.19;5029928;28;1553;-53
2021/08/03 00:50:38;;;;;;;;;;;;;;;27.85;40.20;97313.44;5029913;28;1318;-53
2021/08/03 00:53:03;;;;;;;;;;;;;;;27.94;40.18;97312.59;5029257;28;1537;-53
2021/08/03 00:55:28;;;;;;;;;;;;;;;27.99;40.27;97320.97;5030162;28;1574;-52
2021/08/03 00:57:53;;;;;;;;;;;;;;;27.96;40.36;97313.28;5028413;28;1243;-52
2021/08/03 01:00:19;;;;;;;;;;;;;;;28.02;40.01;97322.50;5026616;28;1969;-52
2021/08/03 01:02:44;;;;;;;;;;;;;;;27.85;40.19;97310.81;5025465;28;1460;-52
2021/08/03 01:05:09;;;;;;;;;;;;;;;27.97;40.22;97322.94;5026040;28;1632;-53
2021/08/03 01:07:47;;;;;;;;;;;;;;;27.91;39.93;97312.06;5029489;28;1324;-53
2021/08/03 01:10:38;;;;;;;;;;;;;;;27.87;40.02;97316.78;5062557;22;1599;-93
2021/08/03 01:13:06;;;;;;;;;;;;;;;27.88;40.51;97323.75;5026095;28;1263;-93
2021/08/03 01:15:32;;;;;;;;;;;;;;;27.91;40.20;97323.50;5039816;28;1183;-92
2021/08/03 01:18:03;;;;;;;;;;;;;;;27.84;40.42;97310.94;5019992;28;1290;-93
2021/08/03 01:20:29;;;;;;;;;;;;;;;27.81;40.33;97306.78;5032932;28;1910;-93
2021/08/03 01:22:59;;;;;;;;;;;;;;;27.89;40.40;97303.41;5023417;28;1296;-92
2021/08/03 01:25:43;;;;;;;;;;;;;;;27.87;40.23;97300.88;5023571;28;1285;-93
2021/08/03 01:28:12;;;;;;;;;;;;;;;27.76;40.75;97298.41;5041229;28;978;-92
2021/08/03 01:30:37;;;;;;;;;;;;;;;27.96;39.82;97301.84;5039461;28;1321;-92
2021/08/03 01:33:02;;;;;;;;;;;;;;;27.83;40.44;97302.16;5039335;28;1206;-92
2021/08/03 01:35:27;;;;;;;;;;;;;;;27.84;40.43;97311.78;5036035;28;2017;-93
2021/08/03 01:37:53;;;;;;;;;;;;;;;28.09;39.70;97311.19;5038666;28;1278;-92
2021/08/03 01:40:18;;;;;;;;;;;;;;;28.00;39.95;97311.22;5022471;28;1878;-92
2021/08/03 01:42:43;;;;;;;;;;;;;;;27.87;40.23;97300.88;5022270;28;1632;-92
2021/08/03 01:45:09;;;;;;;;;;;;;;;27.89;40.02;97304.25;5039386;28;935;-92
2021/08/03 01:47:34;;;;;;;;;;;;;;;27.86;40.17;97307.16;5022534;28;1413;-92
2021/08/03 01:49:59;;;;;;;;;;;;;;;27.89;40.12;97298.97;5038705;28;1104;-93
2021/08/03 01:52:25;;;;;;;;;;;;;;;27.88;40.24;97296.41;5038921;28;1290;-92
2021/08/03 01:54:50;;;;;;;;;;;;;;;27.78;40.42;97299.09;5022206;28;1269;-93
2021/08/03 01:57:15;;;;;;;;;;;;;;;27.77;40.52;97308.03;5039041;28;1997;-92
2021/08/03 01:59:44;;;;;;;;;;;;;;;27.85;40.30;97307.31;5038780;28;1879;-92
2021/08/03 02:02:09;;;;;;;;;;;;;;;27.81;40.00;97299.66;5038717;28;1265;-93
2021/08/03 02:04:35;;;;;;;;;;;;;;;27.83;40.23;97303.97;5038581;28;1120;-92
2021/08/03 02:07:00;;;;;;;;;;;;;;;27.84;40.13;97301.19;5021850;28;1218;-92
2021/08/03 02:09:25;;;;;;;;;;;;;;;27.81;39.99;97304.13;5038758;28;1049;-92
2021/08/03 02:11:50;;;;;;;;;;;;;;;27.87;39.68;97302.69;5021697;28;1822;-92
2021/08/03 02:14:16;;;;;;;;;;;;;;;27.81;40.09;97306.78;5038132;28;1214;-92
2021/08/03 02:16:41;;;;;;;;;;;;;;;27.83;40.08;97304.81;5014811;28;1204;-93
2021/08/03 02:19:06;;;;;;;;;;;;;;;27.89;39.75;97306.06;5037721;28;1902;-93
2021/08/03 02:21:32;;;;;;;;;;;;;;;27.85;39.85;97302.03;5035067;28;1215;-92
2021/08/03 02:23:57;;;;;;;;;;;;;;;27.83;40.02;97303.97;5021717;28;1291;-92
2021/08/03 02:26:22;;;;;;;;;;;;;;;27.87;39.97;97306.19;5018287;28;1204;-92
2021/08/03 02:28:47;;;;;;;;;;;;;;;27.81;40.00;97304.97;5034117;28;1022;-92
2021/08/03 02:31:29;;;;;;;;;;;;;;;27.75;40.31;97299.38;5021788;28;1327;-92
2021/08/03 02:33:58;;;;;;;;;;;;;;;27.71;40.24;97306.75;5021628;28;1192;-93
2021/08/03 02:36:23;;;;;;;;;;;;;;;27.85;40.07;97305.50;5022546;28;1156;-92
2021/08/03 02:38:54;;;;;;;;;;;;;;;27.80;39.77;97307.72;5019373;28;1898;-92
2021/08/03 02:41:19;;;;;;;;;;;;;;;27.78;40.32;97305.22;5019981;28;1194;-93
2021/08/03 02:43:44;;;;;;;;;;;;;;;27.73;40.35;97309.28;5020435;28;808;-92
2021/08/03 02:46:11;;;;;;;;;;;;;;;27.81;39.90;97306.78;5019008;28;1177;-92
2021/08/03 02:48:37;;;;;;;;;;;;;;;27.91;39.76;97309.41;5019510;28;1358;-93
2021/08/03 02:51:02;;;;;;;;;;;;;;;27.83;40.02;97304.81;5038410;28;1293;-93
2021/08/03 02:53:29;;;;;;;;;;;;;;;27.83;40.06;97309.28;5038794;28;1338;-92
2021/08/03 02:56:02;;;;;;;;;;;;;;;27.77;39.99;97298.25;5038203;28;1045;-93
2021/08/03 02:58:32;;;;;;;;;;;;;;;27.85;39.69;97297.56;5002133;28;1369;-92
2021/08/03 03:00:58;;;;;;;;;;;;;;;27.78;40.03;97302.56;5026248;28;1968;-92
2021/08/03 03:03:23;;;;;;;;;;;;;;;27.76;39.83;97295.75;5036851;28;1212;-92
2021/08/03 03:05:50;;;;;;;;;;;;;;;27.78;39.80;97296.44;5025415;28;1207;-92
2021/08/03 03:08:16;;;;;;;;;;;;;;;27.85;40.09;97299.38;5025812;28;1360;-92
2021/08/03 03:10:42;;;;;;;;;;;;;;;27.85;39.40;97302.84;5025346;28;1370;-93
2021/08/03 03:13:25;;;;;;;;;;;;;;;27.80;39.98;97300.63;5041790;28;1183;-92
2021/08/03 03:15:50;;;;;;;;;;;;;;;27.78;39.79;97307.03;5041593;28;1250;-92
2021/08/03 03:18:15;;;;;;;;;;;;;;;27.73;40.21;97310.13;5025168;28;1329;-93
2021/08/03 03:20:40;;;;;;;;;;;;;;;27.68;40.03;97311.53;5025362;28;1945;-93
2021/08/03 03:23:06;;;;;;;;;;;;;;;27.79;39.74;97300.75;5041202;28;1069;-92
2021/08/03 03:25:31;;;;;;;;;;;;;;;27.71;40.07;97305.94;5025025;28;1192;-93
2021/08/03 03:27:57;;;;;;;;;;;;;;;27.78;39.95;97304.38;5021192;28;1839;-92
2021/08/03 03:30:23;;;;;;;;;;;;;;;27.80;39.73;97302.44;5037695;28;1216;-92
2021/08/03 03:32:48;;;;;;;;;;;;;;;27.71;39.97;97298.81;5040823;28;1739;-92
2021/08/03 03:35:13;;;;;;;;;;;;;;;27.85;39.49;97299.38;5057528;28;1198;-92
2021/08/03 03:37:39;;;;;;;;;;;;;;;27.88;39.58;97299.06;5040923;28;1275;-92
2021/08/03 03:40:04;;;;;;;;;;;;;;;27.83;39.54;97291.56;5041063;28;1887;-92
2021/08/03 03:42:30;;;;;;;;;;;;;;;27.82;39.80;97297.84;5040926;28;1181;-92
2021/08/03 03:44:56;;;;;;;;;;;;;;;27.77;39.88;97306.22;5024368;28;1337;-92
2021/08/03 03:47:24;;;;;;;;;;;;;;;27.76;39.69;97293.09;5043381;28;835;-92
2021/08/03 03:49:50;;;;;;;;;;;;;;;27.70;39.72;97289.19;5024313;28;1201;-92
2021/08/03 03:52:16;;;;;;;;;;;;;;;27.83;39.60;97296.03;5024535;28;1351;-92
2021/08/03 03:54:42;;;;;;;;;;;;;;;27.82;39.66;97287.25;5040474;28;1457;-92
2021/08/03 03:57:08;;;;;;;;;;;;;;;27.83;39.34;97288.09;5040410;28;1932;-92
2021/08/03 03:59:33;;;;;;;;;;;;;;;27.78;39.66;97291.13;5040746;28;1882;-92
2021/08/03 04:01:58;;;;;;;;;;;;;;;27.70;40.14;97289.19;5040433;28;1293;-92
2021/08/03 04:04:24;;;;;;;;;;;;;;;27.71;39.95;97288.22;5040589;28;1690;-92
2021/08/03 04:06:49;;;;;;;;;;;;;;;27.78;39.92;97285.84;5023892;28;1273;-92
2021/08/03 04:09:21;;;;;;;;;;;;;;;27.77;39.87;97286.81;5040430;28;986;-92
2021/08/03 04:11:46;;;;;;;;;;;;;;;27.76;39.76;97283.34;5040734;28;1375;-92
2021/08/03 04:14:11;;;;;;;;;;;;;;;27.79;40.04;97284.84;5023415;28;1325;-92
2021/08/03 04:16:37;;;;;;;;;;;;;;;27.85;39.44;97296.72;5041743;28;1203;-92
2021/08/03 04:19:02;;;;;;;;;;;;;;;27.76;39.49;97288.63;5040109;28;1983;-92
2021/08/03 04:21:27;;;;;;;;;;;;;;;27.76;39.78;97290.44;5040264;28;1306;-92
2021/08/03 04:23:52;;;;;;;;;;;;;;;27.76;39.92;97299.25;5040686;28;1053;-92
2021/08/03 04:26:17;;;;;;;;;;;;;;;27.87;39.70;97289.44;5023100;28;1293;-92
2021/08/03 04:28:43;;;;;;;;;;;;;;;27.75;39.57;97296.72;5041080;28;969;-93
2021/08/03 04:31:08;;;;;;;;;;;;;;;27.76;39.54;97295.75;5041497;28;1365;-92
2021/08/03 04:33:34;;;;;;;;;;;;;;;27.76;39.61;97298.41;5027747;28;1190;-92
2021/08/03 04:35:59;;;;;;;;;;;;;;;27.68;39.76;97299.09;5039772;28;1255;-92
2021/08/03 04:38:24;;;;;;;;;;;;;;;27.80;39.79;97294.47;5023248;28;1184;-92
2021/08/03 04:40:50;;;;;;;;;;;;;;;27.70;40.03;97288.34;5022750;28;1898;-92
2021/08/03 04:43:15;;;;;;;;;;;;;;;27.70;40.07;97297.16;5039173;28;1187;-92
2021/08/03 04:45:40;;;;;;;;;;;;;;;27.74;39.76;97295.06;5038980;28;1241;-92
2021/08/03 04:48:05;;;;;;;;;;;;;;;27.79;39.63;97293.66;5038634;28;1188;-92
2021/08/03 04:50:30;;;;;;;;;;;;;;;27.99;39.16;97289.16;5038878;28;1366;-92
2021/08/03 04:52:56;;;;;;;;;;;;;;;27.70;39.90;97283.91;5022375;28;1306;-92
2021/08/03 04:55:21;;;;;;;;;;;;;;;27.73;39.88;97288.94;5022691;28;1212;-92
2021/08/03 04:57:46;;;;;;;;;;;;;;;27.76;39.56;97282.50;5023032;28;1890;-92
2021/08/03 05:00:12;;;;;;;;;;;;;;;27.71;40.02;97285.56;5023292;28;1891;-92
2021/08/03 05:02:37;;;;;;;;;;;;;;;27.89;39.62;97288.34;5039804;28;1243;-90
2021/08/03 05:05:05;;;;;;;;;;;;;;;27.84;39.59;97289.75;5040172;28;1147;-93
2021/08/03 05:07:31;;;;;;;;;;;;;;;27.90;39.47;97289.19;5056992;28;1195;-92
2021/08/03 05:10:14;;;;;;;;;;;;;;;27.91;39.44;97290.84;5040080;28;1327;-93
2021/08/03 05:12:39;;;;;;;;;;;;;;;27.93;39.48;97291.53;5024070;28;2030;-93
2021/08/03 05:15:05;;;;;;;;;;;;;;;27.78;39.58;97299.09;5040280;28;1199;-93
2021/08/03 05:17:31;;;;;;;;;;;;;;;27.91;39.17;97297.00;5056323;28;1056;-93
2021/08/03 05:19:56;;;;;;;;;;;;;;;27.87;39.64;97292.94;5023099;28;1945;-92
2021/08/03 05:22:21;;;;;;;;;;;;;;;27.70;39.71;97291.84;5024180;28;1311;-93
2021/08/03 05:24:47;;;;;;;;;;;;;;;27.99;39.13;97291.81;5024608;28;1168;-92
2021/08/03 05:27:12;;;;;;;;;;;;;;;27.72;39.78;97286.41;5039532;28;1191;-93
2021/08/03 05:29:37;;;;;;;;;;;;;;;27.83;39.69;97288.91;5040302;28;1085;-92
2021/08/03 05:32:02;;;;;;;;;;;;;;;27.87;39.24;97290.28;5038434;28;1241;-91
2021/08/03 05:34:28;;;;;;;;;;;;;;;27.77;39.75;97285.00;5037503;28;903;-91
2021/08/03 05:36:53;;;;;;;;;;;;;;;27.76;39.65;97285.16;5037361;28;1314;-91
2021/08/03 05:39:19;;;;;;;;;;;;;;;27.71;40.03;97284.72;5037187;28;1968;-91
2021/08/03 05:41:44;;;;;;;;;;;;;;;27.81;39.70;97282.94;5027350;28;1912;-91
2021/08/03 05:44:09;;;;;;;;;;;;;;;27.78;39.86;97289.31;5030379;28;1277;-91
2021/08/03 05:46:34;;;;;;;;;;;;;;;27.84;39.39;97285.28;5020395;28;1342;-91
2021/08/03 05:49:00;;;;;;;;;;;;;;;27.89;39.67;97291.00;5020522;28;1168;-91
2021/08/03 05:51:25;;;;;;;;;;;;;;;27.83;39.71;97294.22;5020348;28;1336;-91
2021/08/03 05:53:50;;;;;;;;;;;;;;;27.83;39.76;97283.63;5036881;28;1195;-91
2021/08/03 05:56:15;;;;;;;;;;;;;;;27.71;40.04;97290.03;5036699;28;1213;-91
2021/08/03 05:58:41;;;;;;;;;;;;;;;27.97;39.36;97296.44;5020068;28;1232;-91
2021/08/03 06:01:06;;;;;;;;;;;;;;;27.71;39.75;97290.03;5037762;28;1953;-91
2021/08/03 06:03:31;;;;;;;;;;;;;;;27.65;40.03;97285.25;5037086;28;1393;-91
2021/08/03 06:05:56;;;;;;;;;;;;;;;27.76;40.04;97291.28;5020361;28;1177;-91
2021/08/03 06:08:22;;;;;;;;;;;;;;;27.68;39.70;97285.03;5036959;28;933;-91
2021/08/03 06:10:49;;;;;;;;;;;;;;;27.70;39.83;97278.59;5036409;28;1393;-91
2021/08/03 06:13:14;;;;;;;;;;;;;;;27.77;39.68;97282.34;5036681;28;1096;-91
2021/08/03 06:15:39;;;;;;;;;;;;;;;27.81;39.65;97286.41;5036409;28;1029;-91
2021/08/03 06:18:10;;;;;;;;;;;;;;;27.76;39.75;97287.81;5036761;28;1180;-91
2021/08/03 06:20:35;;;;;;;;;;;;;;;27.69;40.20;97284.03;5036204;28;1882;-91
2021/08/03 06:23:00;;;;;;;;;;;;;;;27.88;39.58;97289.31;5037379;28;1131;-92
2021/08/03 06:25:25;;;;;;;;;;;;;;;27.78;39.92;97285.84;5017927;28;1221;-92
2021/08/03 06:27:51;;;;;;;;;;;;;;;27.81;39.64;97286.41;5022890;28;1779;-93
2021/08/03 06:30:16;;;;;;;;;;;;;;;27.72;39.96;97279.28;5023137;28;1312;-93
2021/08/03 06:32:42;;;;;;;;;;;;;;;27.72;40.14;97278.44;5021662;28;1571;-93
2021/08/03 06:35:07;;;;;;;;;;;;;;;27.76;39.99;97282.50;5039109;28;1579;-93
2021/08/03 06:37:33;;;;;;;;;;;;;;;27.66;40.23;97281.66;5042727;28;1168;-93
2021/08/03 06:39:58;;;;;;;;;;;;;;;27.76;40.02;97295.75;5026055;28;1874;-93
2021/08/03 06:42:42;;;;;;;;;;;;;;;27.68;39.82;97285.84;5041829;28;1618;-93
2021/08/03 06:45:18;;;;;;;;;;;;;;;27.63;40.06;97303.09;5043804;28;1353;-93
2021/08/03 06:48:03;;;;;;;;;;;;;;;27.65;40.29;97307.31;5023241;28;1475;-93
2021/08/03 06:50:29;;;;;;;;;;;;;;;27.68;40.05;97300.91;5043151;28;1582;-93
2021/08/03 06:52:55;;;;;;;;;;;;;;;27.65;40.17;97293.19;5057849;28;1203;-93
2021/08/03 06:55:24;;;;;;;;;;;;;;;27.80;39.59;97295.31;5041805;28;1157;-93
2021/08/03 06:57:50;;;;;;;;;;;;;;;27.60;40.12;97295.47;5041192;28;1619;-93
2021/08/03 07:00:15;;;;;;;;;;;;;;;27.69;39.84;97287.53;5042022;28;1883;-93
2021/08/03 07:02:41;;;;;;;;;;;;;;;27.65;40.31;97287.91;5042749;28;1375;-93
2021/08/03 07:05:19;;;;;;;;;;;;;;;27.59;40.26;97288.50;5040954;28;1649;-93
2021/08/03 07:07:45;;;;;;;;;;;;;;;27.70;40.21;97277.75;5027156;28;1188;-93
2021/08/03 07:10:10;;;;;;;;;;;;;;;27.76;40.33;97278.03;5042026;28;1419;-93
2021/08/03 07:12:35;;;;;;;;;;;;;;;27.68;40.10;97279.72;5041677;28;1276;-91
2021/08/03 07:15:00;;;;;;;;;;;;;;;27.78;39.87;97286.69;5033430;28;1617;-91
2021/08/03 07:17:26;;;;;;;;;;;;;;;27.70;40.21;97281.25;5019112;28;1207;-90
2021/08/03 07:19:51;;;;;;;;;;;;;;;27.72;40.16;97283.75;5034342;28;1981;-90
2021/08/03 07:22:17;;;;;;;;;;;;;;;28.15;39.42;97288.56;5026029;28;1616;-96
2021/08/03 07:24:43;;;;;;;;;;;;;;;29.42;36.81;97279.03;5028971;28;1468;-93
2021/08/03 07:27:08;;;;;;;;;;;;;;;28.55;38.59;97277.72;5020907;28;1447;-90
2021/08/03 07:29:33;;;;;;;;;;;;;;;28.93;37.66;97283.84;5033215;28;1669;-89
2021/08/03 07:31:58;;;;;;;;;;;;;;;28.97;37.31;97271.94;5039978;28;1453;-90
2021/08/03 07:34:24;;;;;;;;;;;;;;;29.23;36.91;97276.50;5036703;28;1185;-90
2021/08/03 07:36:49;;;;;;;;;;;;;;;28.92;37.72;97275.03;5035572;28;1824;-90
2021/08/03 07:39:14;;;;;;;;;;;;;;;29.07;37.18;97275.38;5035398;28;1906;-89
2021/08/03 07:41:39;;;;;;;;;;;;;;;29.33;36.49;97271.97;5033742;28;1546;-89
2021/08/03 07:44:05;;;;;;;;;;;;;;;29.17;36.77;97281.44;5018776;28;1673;-90
2021/08/03 07:46:30;;;;;;;;;;;;;;;29.38;36.35;97280.31;5035167;28;1097;-89
2021/08/03 07:48:56;;;;;;;;;;;;;;;29.09;37.19;97284.03;5035129;28;1653;-89
2021/08/03 07:51:21;;;;;;;;;;;;;;;29.27;36.69;97281.38;5035106;28;1508;-87
2021/08/03 07:53:46;;;;;;;;;;;;;;;29.45;36.48;97276.88;5034718;28;1230;-88
2021/08/03 07:56:12;;;;;;;;;;;;;;;29.28;36.70;97279.56;5033939;28;1514;-87
2021/08/03 07:58:37;;;;;;;;;;;;;;;29.38;36.56;97280.31;5034994;28;1180;-87
2021/08/03 08:01:03;;;;;;;;;;;;;;;29.12;37.06;97285.53;5033392;28;1902;-87
2021/08/03 08:03:28;;;;;;;;;;;;;;;28.67;38.06;97282.81;5035859;28;1630;-85
2021/08/03 08:05:54;;;;;;;;;;;;;;;28.94;38.00;97287.34;5034051;28;1172;-86
2021/08/03 08:08:19;;;;;;;;;;;;;;;28.61;38.21;97279.78;5050554;28;1306;-85
2021/08/03 08:10:44;;;;;;;;;;;;;;;28.58;38.24;97282.72;5037188;28;1483;-87
2021/08/03 08:13:09;;;;;;;;;;;;;;;29.18;37.47;97288.44;5052330;28;1260;-87
2021/08/03 08:15:34;;;;;;;;;;;;;;;29.03;37.78;97286.44;5039804;28;1191;-88
2021/08/03 08:18:00;;;;;;;;;;;;;;;29.09;37.57;97277.88;5038139;28;1169;-87
2021/08/03 08:20:25;;;;;;;;;;;;;;;28.86;38.31;97280.91;5038135;28;1906;-87
2021/08/03 08:22:50;;;;;;;;;;;;;;;28.77;38.50;97280.97;5049464;28;1101;-85
2021/08/03 08:25:15;;;;;;;;;;;;;;;28.52;39.05;97278.00;5060917;28;1282;-87
2021/08/03 08:27:41;;;;;;;;;;;;;;;28.93;38.04;97278.53;5056320;28;1065;-88
2021/08/03 08:30:06;;;;;;;;;;;;;;;28.66;38.56;97271.38;5040661;28;807;-87
2021/08/03 08:32:32;;;;;;;;;;;;;;;28.67;38.57;97272.19;5023176;28;1283;-87
2021/08/03 08:34:57;;;;;;;;;;;;;;;28.82;38.31;97276.03;5041167;28;922;-88
2021/08/03 08:37:22;;;;;;;;;;;;;;;28.47;38.89;97277.59;5040769;28;1194;-87
2021/08/03 08:39:47;;;;;;;;;;;;;;;28.54;39.00;97272.56;5040953;28;1975;-88
2021/08/03 08:42:12;;;;;;;;;;;;;;;28.76;38.39;97274.81;5040507;28;1192;-88
2021/08/03 08:44:38;;;;;;;;;;;;;;;28.57;38.89;97273.09;5039440;28;1442;-87
2021/08/03 08:47:06;;;;;;;;;;;;;;;28.48;39.20;97267.84;5039097;28;1227;-88
2021/08/03 08:49:32;;;;;;;;;;;;;;;28.79;38.57;97282.47;5039649;28;1078;-88
2021/08/03 08:51:57;;;;;;;;;;;;;;;28.61;38.54;97274.47;5038845;28;1856;-87
2021/08/03 08:54:22;;;;;;;;;;;;;;;28.58;38.76;97266.78;5038836;28;1113;-88
2021/08/03 08:56:47;;;;;;;;;;;;;;;28.53;38.91;97269.06;5040526;28;1208;-87
2021/08/03 08:59:12;;;;;;;;;;;;;;;28.56;38.82;97263.47;5038070;28;1995;-88
2021/08/03 09:01:38;;;;;;;;;;;;;;;28.68;38.56;97257.97;5055621;28;1311;-87
2021/08/03 09:04:04;;;;;;;;;;;;;;;28.58;38.91;97258.00;5040063;28;1195;-87
2021/08/03 09:06:29;;;;;;;;;;;;;;;28.55;39.05;97253.84;5038867;28;1350;-88
2021/08/03 09:08:55;;;;;;;;;;;;;;;28.74;38.42;97255.53;5039750;28;982;-87
2021/08/03 09:11:20;;;;;;;;;;;;;;;28.58;38.91;97258.00;5039351;28;1191;-88
2021/08/03 09:13:54;;;;;;;;;;;;;;;28.48;39.03;97255.41;5039779;28;1227;-87
2021/08/03 09:16:20;;;;;;;;;;;;;;;28.69;38.71;97249.03;5039853;28;1250;-88
2021/08/03 09:18:45;;;;;;;;;;;;;;;28.84;38.30;97244.88;5040471;28;914;-87
2021/08/03 09:21:23;;;;;;;;;;;;;;;28.82;38.54;97255.63;5038551;28;1956;-88
2021/08/03 09:23:51;;;;;;;;;;;;;;;28.52;38.80;97248.84;5039967;28;800;-88
2021/08/03 09:26:16;;;;;;;;;;;;;;;28.66;38.47;97255.44;5038857;28;1307;-87
2021/08/03 09:29:03;;;;;;;;;;;;;;;28.49;38.88;97254.41;5039636;28;1148;-87
2021/08/03 09:31:31;;;;;;;;;;;;;;;28.65;38.75;97246.66;5039749;28;1196;-88
2021/08/03 09:33:56;;;;;;;;;;;;;;;28.57;38.71;97243.06;5039096;28;875;-87
2021/08/03 09:36:40;;;;;;;;;;;;;;;28.59;38.69;97238.44;5021968;28;1285;-87
2021/08/03 09:39:05;;;;;;;;;;;;;;;28.51;39.13;97252.44;5039685;28;1890;-88
2021/08/03 09:41:44;;;;;;;;;;;;;;;28.57;38.96;97249.22;5038332;28;1283;-88
2021/08/03 09:44:13;;;;;;;;;;;;;;;28.45;38.98;97245.09;5034835;28;1486;-88
2021/08/03 09:46:38;;;;;;;;;;;;;;;28.59;38.90;97239.28;5021565;28;1296;-87
2021/08/03 09:49:03;;;;;;;;;;;;;;;28.48;39.22;97238.66;5039784;28;894;-87
2021/08/03 09:51:28;;;;;;;;;;;;;;;28.72;38.42;97238.09;5039522;28;1185;-88
2021/08/03 09:53:53;;;;;;;;;;;;;;;28.60;39.04;97230.34;5021519;28;1314;-87
2021/08/03 09:56:28;;;;;;;;;;;;;;;28.73;38.49;97235.28;5055065;28;1236;-88
2021/08/03 09:58:57;;;;;;;;;;;;;;;28.62;38.68;97236.34;5039174;28;910;-88
2021/08/03 10:01:26;;;;;;;;;;;;;;;28.62;38.76;97225.72;5038278;28;1186;-88
2021/08/03 10:03:51;;;;;;;;;;;;;;;28.54;38.75;97225.63;5039819;28;788;-87
2021/08/03 10:06:17;;;;;;;;;;;;;;;28.44;39.31;97222.22;5038111;28;1975;-87
2021/08/03 10:08:42;;;;;;;;;;;;;;;28.54;38.86;97222.97;5021184;28;1232;-88
2021/08/03 10:11:08;;;;;;;;;;;;;;;28.48;39.03;97217.44;5037874;28;1394;-88
2021/08/03 10:13:33;;;;;;;;;;;;;;;28.48;39.22;97214.78;5037733;28;1224;-87
2021/08/03 10:15:58;;;;;;;;;;;;;;;28.55;38.77;97216.69;5038151;28;1164;-87
2021/08/03 10:18:23;;;;;;;;;;;;;;;28.44;38.90;97214.25;5038815;28;986;-88
2021/08/03 10:20:49;;;;;;;;;;;;;;;28.41;39.32;97209.22;5038040;28;1910;-88
2021/08/03 10:23:15;;;;;;;;;;;;;;;28.53;38.91;97207.22;5038091;28;1061;-88
2021/08/03 10:25:40;;;;;;;;;;;;;;;28.53;39.06;97200.09;5039103;28;974;-88
2021/08/03 10:28:19;;;;;;;;;;;;;;;28.47;38.94;97198.03;5037919;28;1065;-88
2021/08/03 10:30:44;;;;;;;;;;;;;;;28.48;39.23;97197.03;5039286;28;1300;-88
2021/08/03 10:33:12;;;;;;;;;;;;;;;28.52;39.06;97195.78;5034086;28;1745;-88
2021/08/03 10:35:38;;;;;;;;;;;;;;;28.41;39.13;97200.44;5028450;28;1589;-88
2021/08/03 10:38:04;;;;;;;;;;;;;;;28.47;39.27;97197.19;5037813;28;1470;-88
2021/08/03 10:40:48;;;;;;;;;;;;;;;28.41;39.03;97192.47;5037782;28;1969;-87
2021/08/03 10:43:19;;;;;;;;;;;;;;;28.47;39.15;97187.41;5039137;28;1836;-87
2021/08/03 10:45:45;;;;;;;;;;;;;;;28.50;39.07;97188.94;5038592;28;1544;-87
2021/08/03 10:48:10;;;;;;;;;;;;;;;28.44;38.92;97194.81;5033526;28;1194;-86
2021/08/03 10:50:35;;;;;;;;;;;;;;;28.56;38.91;97197.13;5036312;28;1299;-87
2021/08/03 10:53:03;;;;;;;;;;;;;;;28.62;38.75;97193.91;5038815;28;903;-88
2021/08/03 10:55:28;;;;;;;;;;;;;;;28.59;39.10;97186.22;5039094;28;1259;-88
2021/08/03 10:58:08;;;;;;;;;;;;;;;28.48;39.01;97178.47;5038981;28;832;-88
2021/08/03 11:00:40;;;;;;;;;;;;;;;28.33;39.42;97185.25;5053929;28;1973;-88
2021/08/03 11:03:05;;;;;;;;;;;;;;;28.49;39.25;97177.47;5037575;28;1088;-87
2021/08/03 11:05:30;;;;;;;;;;;;;;;28.51;38.83;97175.50;5037430;28;1244;-87
2021/08/03 11:07:55;;;;;;;;;;;;;;;28.44;39.37;97170.94;5037171;28;1451;-87
2021/08/03 11:10:21;;;;;;;;;;;;;;;28.52;39.20;97168.41;5036910;28;1366;-87
2021/08/03 11:12:48;;;;;;;;;;;;;;;28.42;39.08;97168.44;5038433;28;947;-88
2021/08/03 11:15:19;;;;;;;;;;;;;;;28.43;39.50;97169.28;5037685;28;1192;-88
2021/08/03 11:18:03;;;;;;;;;;;;;;;28.51;39.09;97172.84;5038743;28;1180;-88
2021/08/03 11:20:37;;;;;;;;;;;;;;;28.43;39.44;97170.13;5037433;28;1965;-88
2021/08/03 11:23:05;;;;;;;;;;;;;;;28.47;39.21;97170.66;5039803;28;1084;-88
2021/08/03 11:25:30;;;;;;;;;;;;;;;28.48;39.33;97162.56;5040647;28;1188;-88
2021/08/03 11:28:08;;;;;;;;;;;;;;;28.40;39.42;97162.47;5024942;28;1056;-88
2021/08/03 11:30:33;;;;;;;;;;;;;;;28.27;39.54;97165.41;5042171;28;1302;-88
2021/08/03 11:32:59;;;;;;;;;;;;;;;28.42;39.19;97159.66;5040961;28;907;-87
2021/08/03 11:35:25;;;;;;;;;;;;;;;28.37;39.36;97149.50;5041843;28;1258;-86
2021/08/03 11:37:50;;;;;;;;;;;;;;;28.54;38.91;97146.06;5024200;28;930;-87
2021/08/03 11:40:15;;;;;;;;;;;;;;;28.51;39.19;97148.16;5041649;28;1902;-87
2021/08/03 11:42:44;;;;;;;;;;;;;;;28.36;39.53;97145.19;5040638;28;1280;-87
2021/08/03 11:45:20;;;;;;;;;;;;;;;28.39;39.32;97131.63;5055415;28;1869;-87
2021/08/03 11:47:46;;;;;;;;;;;;;;;28.44;38.99;97137.31;5060392;28;748;-88
2021/08/03 11:50:12;;;;;;;;;;;;;;;28.49;39.16;97128.91;5044255;28;1514;-87
2021/08/03 11:52:37;;;;;;;;;;;;;;;28.46;39.27;97123.91;5060120;28;1259;-87
2021/08/03 11:55:03;;;;;;;;;;;;;;;28.50;39.02;97122.59;5049077;28;1126;-88
2021/08/03 11:57:29;;;;;;;;;;;;;;;28.36;39.32;97122.16;5041783;28;1021;-88
2021/08/03 12:00:07;;;;;;;;;;;;;;;28.55;39.01;97115.88;5019962;28;1890;-87
2021/08/03 12:02:32;;;;;;;;;;;;;;;28.47;39.16;97110.50;5037836;28;1212;-87
2021/08/03 12:05:07;;;;;;;;;;;;;;;28.42;39.13;97110.09;5041530;28;1136;-87
2021/08/03 12:07:32;;;;;;;;;;;;;;;28.38;39.25;97099.94;5040513;28;1234;-88
2021/08/03 12:09:57;;;;;;;;;;;;;;;28.39;39.19;97098.97;5040035;28;1210;-88
2021/08/03 12:12:23;;;;;;;;;;;;;;;28.36;39.38;97092.16;5040110;28;1196;-87
2021/08/03 12:14:48;;;;;;;;;;;;;;;28.39;39.46;97094.50;5056710;28;1100;-88
2021/08/03 12:17:26;;;;;;;;;;;;;;;28.51;38.93;97087.13;5040196;28;1147;-88
2021/08/03 12:19:51;;;;;;;;;;;;;;;28.43;39.35;97079.09;5039900;28;1906;-87
2021/08/03 12:22:25;;;;;;;;;;;;;;;28.46;39.10;97079.66;5039519;28;1278;-87
2021/08/03 12:24:55;;;;;;;;;;;;;;;28.34;39.57;97075.53;5041262;28;815;-88
2021/08/03 12:27:20;;;;;;;;;;;;;;;28.38;39.17;97074.25;5039675;28;1057;-87
2021/08/03 12:29:45;;;;;;;;;;;;;;;28.45;39.16;97075.34;5040808;28;1089;-87
2021/08/03 12:32:10;;;;;;;;;;;;;;;28.35;39.52;97077.19;5040600;28;1294;-88
2021/08/03 12:34:36;;;;;;;;;;;;;;;28.40;39.45;97064.31;5036659;28;1196;-87
2021/08/03 12:37:01;;;;;;;;;;;;;;;28.46;39.08;97065.56;5039644;28;907;-88
2021/08/03 12:39:36;;;;;;;;;;;;;;;28.52;39.24;97072.91;5036036;28;1965;-88
2021/08/03 12:42:18;;;;;;;;;;;;;;;28.39;39.38;97065.31;5031912;28;2027;-89
2021/08/03 12:44:43;;;;;;;;;;;;;;;28.40;39.40;97063.50;5039487;28;997;-89
2021/08/03 12:47:17;;;;;;;;;;;;;;;28.44;39.27;97070.16;5039586;28;844;-89
2021/08/03 12:49:43;;;;;;;;;;;;;;;28.52;38.99;97065.78;5038224;28;531;-89
2021/08/03 12:52:18;;;;;;;;;;;;;;;28.35;39.46;97058.63;5054494;28;1286;-89
2021/08/03 12:54:56;;;;;;;;;;;;;;;28.33;39.30;97057.97;5039127;28;1136;-89
2021/08/03 12:57:23;;;;;;;;;;;;;;;28.43;39.23;97069.31;5039223;28;898;-89